Time;durP1;ratioP1;P1;durP2;ratioP2;P2;SDS_P1;SDS_P2;PMS_P1;PMS_P2;Temp;Humidity;BMP_temperature;BMP_pressure;BME280_temperature;BME280_humidity;BME280_pressure;Samples;Min_cycle;Max_cycle;Signal;HPM_P1;HPM_P2
2021/07/20 00:04:58;;;;;;;7.10;4.97;;;;;;;17.96;81.67;96335.34;5261828;56;20133;-69
2021/07/20 00:10:00;;;;;;;9.18;5.03;;;;;;;17.89;81.26;96305.88;5262014;56;20129;-70
2021/07/20 00:15:08;;;;;;;9.20;5.10;;;;;;;17.78;82.29;96317.09;5261830;56;20103;-71
2021/07/20 00:20:14;;;;;;;7.18;5.75;;;;;;;17.63;84.04;96327.78;5261693;56;20124;-72
2021/07/20 00:25:17;;;;;;;8.68;5.60;;;;;;;17.16;88.80;96346.25;5261780;56;20121;-70
2021/07/20 00:30:19;;;;;;;11.75;6.00;;;;;;;17.02;90.56;96313.75;5261772;56;20116;-70
2021/07/20 00:35:23;;;;;;;7.43;5.75;;;;;;;16.92;89.57;96318.03;5261653;56;20125;-70
2021/07/20 00:40:28;;;;;;;12.65;6.85;;;;;;;16.97;91.54;96322.09;5261621;56;20153;-70
2021/07/20 00:45:31;;;;;;;9.85;6.25;;;;;;;17.03;91.03;96294.94;5263348;56;20120;-70
2021/07/20 00:50:39;;;;;;;13.93;6.00;;;;;;;17.06;91.17;96302.31;5265043;56;20134;-69
2021/07/20 00:55:42;;;;;;;11.73;5.95;;;;;;;16.95;90.56;96303.06;5264402;56;20130;-70
2021/07/20 01:00:49;;;;;;;9.68;6.07;;;;;;;17.06;90.78;96282.78;5265414;56;20138;-70
2021/07/20 01:05:52;;;;;;;8.77;5.63;;;;;;;17.20;91.12;96274.16;5264545;56;20602;-70
2021/07/20 01:10:56;;;;;;;7.57;5.78;;;;;;;16.92;90.85;96281.75;5265157;56;20120;-70
2021/07/20 01:16:00;;;;;;;12.18;6.57;;;;;;;17.00;90.72;96284.81;5264349;56;20129;-69
2021/07/20 01:21:03;;;;;;;8.35;5.60;;;;;;;17.08;90.30;96274.66;5264591;56;20169;-70
2021/07/20 01:26:06;;;;;;;14.60;5.93;;;;;;;17.09;89.94;96284.56;5264229;56;20598;-68
2021/07/20 01:31:11;;;;;;;7.72;5.90;;;;;;;16.82;90.78;96288.06;5255591;56;20126;-69
2021/07/20 01:36:16;;;;;;;13.32;6.05;;;;;;;16.74;91.62;96293.38;5264589;56;20214;-70
2021/07/20 01:41:19;;;;;;;13.70;5.78;;;;;;;16.82;90.56;96288.84;5264328;56;20120;-68
2021/07/20 01:46:25;;;;;;;8.93;6.80;;;;;;;16.99;90.60;96300.03;5263954;56;20130;-71
2021/07/20 01:51:29;;;;;;;14.30;6.43;;;;;;;16.70;90.81;96300.47;5264214;56;20134;-70
2021/07/20 01:56:32;;;;;;;16.30;7.57;;;;;;;16.30;93.65;96298.78;5263862;56;20108;-69
2021/07/20 02:12:38;;;;;;;9.60;6.07;;;;;;;16.63;91.27;96292.56;5264150;56;20130;-71
2021/07/20 02:17:43;;;;;;;13.38;6.82;;;;;;;16.26;92.19;96312.94;5263830;56;20129;-68
2021/07/20 02:22:46;;;;;;;10.95;6.00;;;;;;;16.24;92.10;96309.13;5263588;56;20107;-70
2021/07/20 02:27:49;;;;;;;10.93;5.55;;;;;;;16.16;92.06;96299.72;5266648;56;20598;-69
2021/07/20 02:32:53;;;;;;;8.93;6.00;;;;;;;16.21;92.07;96288.63;5264428;56;20121;-71
2021/07/20 02:37:57;;;;;;;8.77;5.38;;;;;;;16.18;91.35;96288.84;5264678;56;20589;-71
2021/07/20 02:43:01;;;;;;;8.65;5.78;;;;;;;16.07;92.09;96283.22;5264230;56;20107;-71
2021/07/20 02:48:04;;;;;;;12.63;6.07;;;;;;;16.05;92.51;96288.53;5254079;56;20125;-71
2021/07/20 02:53:07;;;;;;;11.18;6.63;;;;;;;15.93;92.58;96292.50;5263098;56;20120;-71
2021/07/20 02:58:10;;;;;;;6.50;5.32;;;;;;;16.03;92.79;96288.25;5262884;56;20134;-70
2021/07/20 03:03:13;;;;;;;11.90;6.05;;;;;;;16.15;92.11;96300.97;5263505;56;20138;-70
2021/07/20 03:08:18;;;;;;;13.65;6.53;;;;;;;16.20;91.78;96297.47;5262263;56;20589;-71
2021/07/20 03:13:24;;;;;;;10.40;6.28;;;;;;;16.16;92.05;96296.94;5263061;56;20213;-69
2021/07/20 03:18:28;;;;;;;10.48;6.63;;;;;;;16.18;92.27;96300.00;5262735;56;20589;-70
2021/07/20 03:23:33;;;;;;;11.38;6.10;;;;;;;16.07;91.34;96311.09;5262651;56;20121;-69
2021/07/20 03:28:36;;;;;;;14.35;6.43;;;;;;;15.92;91.69;96313.28;5262782;56;20154;-69
2021/07/20 03:33:40;;;;;;;11.82;6.93;;;;;;;15.92;92.18;96324.44;5253823;56;20116;-70
2021/07/20 03:38:43;;;;;;;8.88;6.95;;;;;;;15.97;92.66;96318.88;5262802;56;20128;-69
2021/07/20 03:43:46;;;;;;;11.73;7.25;;;;;;;16.03;93.17;96328.06;5262470;56;20121;-68
2021/07/20 03:48:50;;;;;;;9.77;6.78;;;;;;;16.20;92.95;96328.13;5262286;56;20133;-70
2021/07/20 03:53:53;;;;;;;10.15;6.82;;;;;;;16.31;92.65;96330.97;5262315;56;20657;-71
2021/07/20 03:58:56;;;;;;;9.90;5.07;;;;;;;16.49;92.27;96324.97;5262119;56;20112;-71
2021/07/20 04:04:00;;;;;;;11.13;6.90;;;;;;;16.61;91.53;96337.72;5262369;56;20656;-70
2021/07/20 04:09:02;;;;;;;11.40;7.28;;;;;;;16.57;90.35;96351.16;5286094;56;20133;-71
2021/07/20 04:14:06;;;;;;;12.25;7.40;;;;;;;16.45;91.39;96353.09;5277502;56;20134;-71
2021/07/20 04:19:09;;;;;;;10.55;6.57;;;;;;;16.55;91.32;96353.69;5263807;56;20141;-69
2021/07/20 04:24:13;;;;;;;12.70;7.43;;;;;;;16.66;90.40;96359.31;5265647;56;20121;-70
2021/07/20 04:29:15;;;;;;;8.73;6.82;;;;;;;16.92;90.04;96365.47;5265248;56;20217;-70
2021/07/20 04:34:19;;;;;;;14.55;7.82;;;;;;;17.16;89.41;96368.56;5265445;56;20138;-71
2021/07/20 04:39:22;;;;;;;14.40;6.90;;;;;;;17.20;89.13;96369.13;5265100;56;20620;-70
2021/07/20 04:44:24;;;;;;;12.23;6.78;;;;;;;17.43;88.00;96378.28;5264967;56;20629;-70
2021/07/20 04:49:28;;;;;;;11.98;6.75;;;;;;;17.35;87.65;96382.06;5264952;56;20134;-71
2021/07/20 04:54:31;;;;;;;12.10;6.63;;;;;;;17.57;87.28;96382.16;5264880;56;20116;-70
2021/07/20 04:59:33;;;;;;;11.05;6.63;;;;;;;17.75;86.87;96374.00;5264843;56;20141;-70
2021/07/20 05:04:39;;;;;;;10.27;6.32;;;;;;;17.73;84.80;96379.34;5256325;56;20130;-70
2021/07/20 05:09:43;;;;;;;11.52;7.05;;;;;;;17.70;81.98;96374.78;5255670;56;20868;-69
2021/07/20 05:14:45;;;;;;;8.43;6.72;;;;;;;17.96;82.76;96382.88;5264969;56;20130;-69
2021/07/20 05:20:06;;;;;;;9.98;6.68;;;;;;;17.36;80.80;96378.78;5264605;56;20143;-71
2021/07/20 05:25:11;;;;;;;10.35;6.25;;;;;;;17.58;81.76;96386.44;5264471;56;20121;-69
2021/07/20 05:30:16;;;;;;;8.88;6.30;;;;;;;17.63;80.54;96380.09;5264061;56;20139;-70
2021/07/20 05:35:20;;;;;;;10.68;6.70;;;;;;;17.58;79.74;96387.22;5264564;56;20116;-71
2021/07/20 05:40:24;;;;;;;12.20;7.28;;;;;;;17.57;80.51;96390.53;5268373;56;20134;-71
2021/07/20 05:45:29;;;;;;;13.57;7.30;;;;;;;17.61;79.93;96396.63;5266277;56;20247;-69
2021/07/20 05:50:31;;;;;;;10.45;6.65;;;;;;;17.81;79.70;96399.16;5265653;56;20250;-70
2021/07/20 05:55:36;;;;;;;9.77;7.00;;;;;;;17.88;78.15;96388.25;5255634;56;20107;-70
2021/07/20 06:00:38;;;;;;;9.38;6.50;;;;;;;17.92;76.54;96394.34;5264026;56;20134;-70
2021/07/20 06:05:43;;;;;;;11.23;6.65;;;;;;;17.85;76.72;96394.84;5263648;56;20124;-70
2021/07/20 06:11:08;;;;;;;13.27;7.10;;;;;;;17.83;76.51;96402.22;5263832;56;20662;-70
2021/07/20 06:16:12;;;;;;;12.30;6.93;;;;;;;18.01;76.90;96407.28;5263748;56;20112;-71
2021/07/20 06:21:17;;;;;;;12.75;6.70;;;;;;;18.24;76.87;96413.63;5263398;56;20121;-71
2021/07/20 06:26:21;;;;;;;11.30;6.70;;;;;;;18.30;75.58;96417.94;5263270;56;20160;-69
2021/07/20 06:31:25;;;;;;;10.93;7.05;;;;;;;18.39;75.12;96414.88;5265670;56;20112;-70
2021/07/20 06:36:27;;;;;;;15.45;6.40;;;;;;;18.60;73.89;96409.75;5264287;56;20180;-71
2021/07/20 06:41:34;;;;;;;10.18;6.95;;;;;;;18.78;74.30;96414.03;5263170;56;20120;-69
2021/07/20 06:46:37;;;;;;;11.27;7.45;;;;;;;18.77;73.78;96426.50;5262481;56;20134;-70
2021/07/20 06:51:39;;;;;;;11.48;7.20;;;;;;;18.92;73.98;96430.53;5263186;56;20655;-71
2021/07/20 06:56:50;;;;;;;11.55;7.28;;;;;;;18.95;72.20;96439.94;5262792;56;20120;-71
2021/07/20 07:01:54;;;;;;;11.50;7.65;;;;;;;18.92;73.91;96426.97;5263081;56;20129;-70
2021/07/20 07:06:58;;;;;;;12.98;6.78;;;;;;;19.33;73.83;96427.78;5261406;56;20125;-70
2021/07/20 07:12:01;;;;;;;9.10;6.55;;;;;;;19.51;72.80;96423.63;5262858;56;20116;-70
2021/07/20 07:17:06;;;;;;;10.32;7.03;;;;;;;19.58;72.46;96426.66;5261198;56;20116;-70
2021/07/20 07:22:10;;;;;;;10.45;6.82;;;;;;;19.73;73.06;96434.69;5272670;56;20678;-69
2021/07/20 07:27:14;;;;;;;13.90;7.55;;;;;;;19.62;72.76;96427.13;5264848;56;20121;-68
2021/07/20 07:32:19;;;;;;;13.25;6.90;;;;;;;20.23;71.21;96437.91;5268898;56;20696;-69
2021/07/20 07:37:25;;;;;;;11.93;7.45;;;;;;;20.50;69.97;96436.88;5271033;56;20125;-71
2021/07/20 07:42:29;;;;;;;11.90;7.35;;;;;;;20.36;69.45;96431.66;5268844;56;20133;-72
2021/07/20 07:47:32;;;;;;;9.77;6.35;;;;;;;20.60;72.80;96434.47;5280564;56;20124;-69
2021/07/20 07:52:35;;;;;;;9.45;5.97;;;;;;;20.69;67.89;96428.53;5283380;56;20183;-71
2021/07/20 07:57:42;;;;;;;11.25;6.60;;;;;;;20.74;68.59;96428.44;5264876;56;20230;-70
2021/07/20 08:02:50;;;;;;;9.38;6.60;;;;;;;21.08;64.96;96440.06;5259727;56;20121;-72
2021/07/20 08:07:54;;;;;;;11.95;7.05;;;;;;;22.11;63.93;96437.63;5256993;56;20251;-68
2021/07/20 08:12:58;;;;;;;13.98;6.43;;;;;;;22.77;57.84;96444.19;5261149;56;20120;-72
2021/07/20 08:18:02;;;;;;;10.02;7.03;;;;;;;23.02;55.99;96433.44;5262041;56;20116;-71
2021/07/20 08:23:04;;;;;;;8.70;6.10;;;;;;;23.96;56.09;96434.97;5261946;56;20223;-71
2021/07/20 08:28:28;;;;;;;7.07;6.18;;;;;;;23.26;56.04;96436.00;5260847;56;20567;-72
2021/07/20 08:33:33;;;;;;;9.10;6.50;;;;;;;25.14;50.46;96448.41;5261863;56;20138;-72
2021/07/20 08:38:36;;;;;;;7.32;5.97;;;;;;;24.50;51.62;96450.38;5258547;56;20111;-73
2021/07/20 08:43:59;;;;;;;10.23;6.50;;;;;;;25.01;48.65;96451.34;5261683;56;20098;-72
2021/07/20 08:49:20;;;;;;;9.07;6.32;;;;;;;24.91;52.55;96459.59;5262390;56;20332;-71
2021/07/20 08:54:29;;;;;;;8.95;6.60;;;;;;;25.28;49.68;96463.97;5274102;56;20112;-72
2021/07/20 08:59:39;;;;;;;17.33;7.40;;;;;;;24.52;51.58;96456.22;5263932;56;20117;-72
2021/07/20 09:04:52;;;;;;;11.15;6.20;;;;;;;25.77;51.34;96454.56;5269092;56;20124;-71
2021/07/20 09:09:57;;;;;;;10.35;6.47;;;;;;;25.24;54.27;96457.88;5265298;56;20685;-70
2021/07/20 09:15:12;;;;;;;12.38;6.80;;;;;;;24.71;53.25;96459.59;5284874;56;20129;-72
2021/07/20 09:20:20;;;;;;;7.20;5.53;;;;;;;26.75;45.72;96458.38;5286477;56;20103;-70
2021/07/20 09:25:33;;;;;;;8.83;6.60;;;;;;;26.32;49.24;96450.75;5270242;56;20651;-72
2021/07/20 09:30:42;;;;;;;10.05;6.18;;;;;;;26.84;44.30;96466.31;5264353;56;20124;-72
2021/07/20 09:35:58;;;;;;;7.53;6.15;;;;;;;28.26;47.17;96457.88;5263893;56;20132;-71
2021/07/20 09:41:33;;;;;;;10.77;6.10;;;;;;;27.77;43.25;96466.28;5255385;56;20696;-72
2021/07/20 09:46:54;;;;;;;8.60;6.38;;;;;;;27.85;45.71;96455.63;5263965;56;20134;-73
2021/07/20 09:52:20;;;;;;;7.13;5.95;;;;;;;29.10;40.50;96453.06;5255363;56;20252;-71
2021/07/20 09:58:00;;;;;;;9.07;6.57;;;;;;;28.58;46.89;96453.50;5254913;56;20553;-71
2021/07/20 10:03:06;;;;;;;9.95;6.18;;;;;;;30.54;37.97;96454.13;5263915;56;20125;-72
2021/07/20 10:08:23;;;;;;;10.82;6.60;;;;;;;26.60;43.54;96458.31;5264004;56;20125;-71
2021/07/20 10:13:32;;;;;;;8.95;6.95;;;;;;;23.48;50.12;96449.66;5263591;56;20660;-71
2021/07/20 10:18:54;;;;;;;10.68;7.20;;;;;;;25.40;48.09;96442.50;5263579;56;20116;-72
2021/07/20 10:24:13;;;;;;;7.53;6.00;;;;;;;26.60;43.93;96437.72;5254835;56;20804;-70
2021/07/20 10:29:19;;;;;;;8.13;6.00;;;;;;;26.56;46.54;96440.19;5263251;56;20134;-72
2021/07/20 10:34:26;;;;;;;10.43;6.97;;;;;;;26.10;42.99;96445.81;5263570;56;20125;-72
2021/07/20 10:39:41;;;;;;;9.57;6.85;;;;;;;26.57;42.08;96438.88;5263384;56;20169;-72
2021/07/20 10:45:05;;;;;;;11.25;6.85;;;;;;;26.77;43.59;96423.75;5263015;56;20120;-70
2021/07/20 10:50:22;;;;;;;11.30;7.32;;;;;;;24.76;46.82;96441.75;5262950;56;20666;-71
2021/07/20 10:56:00;;;;;;;9.65;7.00;;;;;;;24.88;46.77;96431.66;5261569;56;20226;-72
2021/07/20 11:01:21;;;;;;;11.80;7.20;;;;;;;24.67;47.04;96439.41;5259843;56;20137;-71
2021/07/20 11:06:24;;;;;;;10.70;7.38;;;;;;;26.15;42.76;96429.94;5267520;56;20213;-73
2021/07/20 11:11:35;;;;;;;9.30;7.18;;;;;;;27.21;42.10;96430.66;5264238;56;20128;-72
2021/07/20 11:16:40;;;;;;;11.25;8.13;;;;;;;26.88;40.37;96418.47;5272766;56;20124;-70
2021/07/20 11:21:43;;;;;;;9.32;7.43;;;;;;;28.67;42.40;96425.19;5284003;56;20561;-72
2021/07/20 11:26:46;;;;;;;10.10;6.88;;;;;;;28.23;39.40;96416.41;5283502;56;20220;-73
2021/07/20 11:31:54;;;;;;;14.80;7.50;;;;;;;27.70;44.25;96413.09;5272729;56;20098;-70
2021/07/20 11:37:02;;;;;;;11.23;6.97;;;;;;;28.49;44.13;96409.41;5261771;56;20116;-71
2021/07/20 11:42:12;;;;;;;9.80;7.25;;;;;;;28.37;40.54;96411.94;5261603;56;20116;-70
2021/07/20 11:47:38;;;;;;;9.75;7.10;;;;;;;28.42;40.78;96404.53;5260232;56;20912;-72
2021/07/20 11:52:46;;;;;;;9.68;6.88;;;;;;;28.35;39.60;96411.03;5260447;56;20112;-71
2021/07/20 11:58:01;;;;;;;11.98;8.40;;;;;;;28.11;40.46;96395.44;5260726;56;20642;-73
2021/07/20 12:03:28;;;;;;;14.75;10.15;;;;;;;28.04;36.92;96393.44;5261841;56;20125;-74
2021/07/20 12:08:48;;;;;;;12.68;9.27;;;;;;;27.57;40.96;96393.47;5284579;56;20112;-73
2021/07/20 12:13:51;;;;;;;12.50;8.90;;;;;;;26.54;42.33;96392.56;5263749;56;20652;-70
2021/07/20 12:18:54;;;;;;;11.98;9.07;;;;;;;25.37;43.99;96398.38;5265586;56;20111;-73
2021/07/20 12:24:05;;;;;;;13.07;8.85;;;;;;;27.49;43.10;96392.75;5261741;56;20124;-73
2021/07/20 12:29:09;;;;;;;14.93;9.60;;;;;;;27.11;39.93;96392.13;5260827;56;20585;-72
2021/07/20 12:34:15;;;;;;;13.27;8.75;;;;;;;26.69;41.33;96392.56;5257222;56;20125;-72
2021/07/20 12:39:21;;;;;;;13.48;9.70;;;;;;;26.16;42.06;96391.81;5260253;56;20123;-73
2021/07/20 12:44:24;;;;;;;12.27;7.95;;;;;;;27.02;40.57;96385.72;5256945;56;20142;-71
2021/07/20 12:49:28;;;;;;;12.30;9.10;;;;;;;27.66;39.93;96392.84;5262054;56;20134;-72
2021/07/20 12:54:38;;;;;;;12.88;10.07;;;;;;;28.04;36.42;96382.06;5271101;56;20120;-71
2021/07/20 12:59:44;;;;;;;10.07;8.07;;;;;;;26.60;43.06;96376.13;5267894;56;20588;-71
2021/07/20 13:04:48;;;;;;;14.35;9.15;;;;;;;26.80;42.11;96377.28;5266469;56;20580;-71
2021/07/20 13:09:51;;;;;;;13.07;9.05;;;;;;;26.77;39.75;96382.00;5264105;56;20147;-72
2021/07/20 13:14:54;;;;;;;11.95;8.50;;;;;;;28.40;40.65;96375.91;5268178;56;20151;-72
2021/07/20 13:19:57;;;;;;;11.35;9.60;;;;;;;26.88;43.34;96387.25;5265915;56;20116;-72
2021/07/20 13:24:59;;;;;;;11.13;8.85;;;;;;;27.33;39.38;96377.09;5263928;56;20121;-72
2021/07/20 13:30:05;;;;;;;12.57;8.65;;;;;;;27.75;40.46;96380.16;5264361;56;20235;-71
2021/07/20 13:35:08;;;;;;;12.10;8.88;;;;;;;28.46;40.08;96379.28;5264127;56;20112;-72
2021/07/20 13:40:13;;;;;;;9.95;8.10;;;;;;;29.09;36.71;96382.47;5264318;56;20173;-73
2021/07/20 13:45:17;;;;;;;11.20;8.55;;;;;;;27.07;39.06;96386.09;5264214;56;20262;-70
2021/07/20 13:50:24;;;;;;;12.95;9.43;;;;;;;27.14;40.10;96379.63;5264204;56;20584;-72
2021/07/20 13:55:30;;;;;;;11.25;8.75;;;;;;;27.88;38.23;96389.16;5264162;56;20309;-71
2021/07/20 14:00:33;;;;;;;13.85;9.35;;;;;;;28.22;40.00;96368.69;5264377;56;20138;-71
2021/07/20 14:05:37;;;;;;;13.82;9.63;;;;;;;27.84;40.12;96376.69;5263732;56;20306;-72
2021/07/20 14:10:40;;;;;;;12.05;8.90;;;;;;;27.32;39.32;96372.75;5263884;56;20580;-71
2021/07/20 14:15:43;;;;;;;12.10;9.48;;;;;;;27.67;38.16;96372.41;5263582;56;20111;-72
2021/07/20 14:20:46;;;;;;;12.95;9.02;;;;;;;27.54;38.26;96378.38;5263730;56;20608;-73
2021/07/20 14:25:54;;;;;;;13.65;9.38;;;;;;;27.39;39.11;96377.66;5270266;56;20103;-73
2021/07/20 14:30:59;;;;;;;12.80;9.55;;;;;;;27.80;37.63;96371.38;5291687;56;20137;-69
2021/07/20 14:36:06;;;;;;;11.20;8.53;;;;;;;27.23;38.37;96368.41;5268029;56;20237;-70
2021/07/20 14:41:13;;;;;;;12.98;8.95;;;;;;;27.72;37.61;96373.53;5263761;56;20656;-71
2021/07/20 14:46:17;;;;;;;11.87;9.13;;;;;;;28.10;36.91;96362.69;5263909;56;20116;-70
2021/07/20 14:51:19;;;;;;;10.57;8.57;;;;;;;28.02;36.39;96362.00;5254160;56;20155;-70
2021/07/20 14:56:22;;;;;;;11.68;8.98;;;;;;;27.42;39.44;96365.16;5263019;56;20120;-70
2021/07/20 15:01:31;;;;;;;14.73;9.45;;;;;;;27.39;37.99;96360.63;5263097;56;20129;-70
2021/07/20 15:06:53;;;;;;;11.85;9.02;;;;;;;27.07;39.08;96360.56;5262703;56;20670;-72
2021/07/20 15:11:57;;;;;;;13.77;9.02;;;;;;;26.96;38.52;96362.47;5262931;56;20133;-71
2021/07/20 15:17:02;;;;;;;11.43;8.38;;;;;;;27.03;39.68;96369.44;5279070;56;20124;-72
2021/07/20 15:22:18;;;;;;;14.40;8.98;;;;;;;26.63;39.25;96365.72;5303100;56;20106;-74
2021/07/20 15:27:24;;;;;;;12.73;8.48;;;;;;;26.77;40.71;96359.31;5275737;56;20306;-71
2021/07/20 15:32:30;;;;;;;16.02;9.27;;;;;;;26.29;40.13;96375.38;5277275;56;20127;-72
2021/07/20 15:37:33;;;;;;;12.70;8.50;;;;;;;25.81;41.28;96370.78;5262766;56;20696;-72
2021/07/20 15:42:39;;;;;;;10.65;8.50;;;;;;;25.76;41.94;96382.28;5268446;56;20107;-73
2021/07/20 15:47:47;;;;;;;13.38;8.75;;;;;;;25.74;40.82;96376.44;5273731;56;20865;-73
2021/07/20 15:52:52;;;;;;;12.27;8.40;;;;;;;25.25;41.61;96383.03;5264252;56;20138;-74
2021/07/20 15:58:01;;;;;;;10.77;7.93;;;;;;;25.62;41.22;96370.38;5262425;56;20125;-73
2021/07/20 16:03:06;;;;;;;12.18;8.23;;;;;;;25.27;42.14;96379.63;5252781;56;20103;-71
2021/07/20 16:08:09;;;;;;;17.13;9.00;;;;;;;25.31;39.88;96383.63;5252859;56;20566;-75
2021/07/20 16:13:12;;;;;;;12.85;7.93;;;;;;;25.26;40.48;96378.88;5261858;56;20098;-73
2021/07/20 16:18:17;;;;;;;10.75;7.65;;;;;;;25.42;39.91;96374.78;5281946;56;20606;-73
2021/07/20 16:23:23;;;;;;;10.75;7.95;;;;;;;25.38;40.54;96382.91;5286259;56;20106;-74
2021/07/20 16:28:26;;;;;;;9.98;7.10;;;;;;;25.34;41.04;96379.69;5286145;56;20120;-73
2021/07/20 16:33:29;;;;;;;8.98;7.30;;;;;;;25.08;39.97;96379.94;5286248;56;20120;-73
2021/07/20 16:38:31;;;;;;;9.35;6.90;;;;;;;24.95;41.09;96382.88;5286128;56;20580;-73
2021/07/20 16:43:37;;;;;;;10.50;7.32;;;;;;;25.15;40.96;96382.03;5277247;56;20124;-70
2021/07/20 16:48:41;;;;;;;9.05;6.90;;;;;;;24.88;40.66;96375.09;5285939;56;20124;-75
2021/07/20 16:53:56;;;;;;;10.95;7.13;;;;;;;24.76;41.45;96379.59;5286089;56;20114;-74
2021/07/20 16:59:03;;;;;;;9.68;6.80;;;;;;;24.82;41.41;96378.09;5285169;56;20218;-71
2021/07/20 17:04:06;;;;;;;12.80;8.13;;;;;;;24.97;41.65;96382.34;5286059;56;20129;-71
2021/07/20 17:09:13;;;;;;;8.75;6.75;;;;;;;25.15;40.83;96381.31;5285537;56;20119;-73
2021/07/20 17:14:16;;;;;;;10.20;6.75;;;;;;;24.99;41.13;96386.09;5286272;56;20141;-72
2021/07/20 17:19:19;;;;;;;9.90;6.90;;;;;;;24.70;42.62;96378.94;5267754;56;20203;-73
2021/07/20 17:24:21;;;;;;;12.07;7.80;;;;;;;24.72;40.85;96384.78;5285660;56;20124;-77
2021/07/20 17:29:24;;;;;;;10.00;6.45;;;;;;;24.68;42.61;96392.84;5283471;56;20579;-72
2021/07/20 17:34:28;;;;;;;10.80;6.70;;;;;;;24.75;42.77;96390.13;5284864;56;20124;-70
2021/07/20 17:39:31;;;;;;;11.85;6.65;;;;;;;24.91;42.28;96393.78;5283690;56;20120;-70
2021/07/20 17:44:46;;;;;;;10.52;7.18;;;;;;;24.50;43.08;96402.34;5253930;56;20709;-72
2021/07/20 17:49:53;;;;;;;8.85;7.00;;;;;;;24.29;44.58;96410.84;5258823;56;20139;-73
2021/07/20 17:55:00;;;;;;;11.18;7.25;;;;;;;24.39;43.53;96408.28;5268859;56;20967;-73
2021/07/20 18:00:05;;;;;;;9.38;7.22;;;;;;;24.02;44.07;96410.19;5271093;56;20106;-73
2021/07/20 18:05:13;;;;;;;12.40;7.82;;;;;;;23.93;44.47;96418.38;5262103;56;20655;-70
2021/07/20 18:10:17;;;;;;;10.18;7.47;;;;;;;23.73;44.49;96411.41;5251849;55;20232;-73
2021/07/20 18:15:19;;;;;;;12.65;7.15;;;;;;;23.62;44.93;96411.66;5232868;56;20121;-72
2021/07/20 18:20:22;;;;;;;10.23;7.05;;;;;;;23.50;45.21;96418.84;5253141;56;20117;-73
2021/07/20 18:25:25;;;;;;;12.00;6.38;;;;;;;23.40;45.59;96423.44;5253677;56;20887;-70
2021/07/20 18:30:27;;;;;;;10.20;7.00;;;;;;;23.08;47.55;96426.38;5284687;56;20124;-73
2021/07/20 18:35:30;;;;;;;9.70;6.88;;;;;;;22.80;48.48;96429.75;5280618;56;20606;-73
2021/07/20 18:40:32;;;;;;;9.57;6.88;;;;;;;22.69;48.98;96435.59;5275364;56;20137;-69
2021/07/20 18:45:35;;;;;;;11.63;7.25;;;;;;;22.49;49.75;96439.00;5277782;56;20125;-73
2021/07/20 18:50:37;;;;;;;8.73;6.45;;;;;;;22.29;53.08;96436.81;5269237;56;20239;-71
2021/07/20 18:55:39;;;;;;;8.57;6.78;;;;;;;22.13;60.71;96446.28;5263123;56;20116;-72
2021/07/20 19:00:42;;;;;;;9.45;6.30;;;;;;;21.86;62.52;96450.28;5263110;56;20120;-72
2021/07/20 19:05:44;;;;;;;10.00;7.10;;;;;;;21.68;62.11;96453.88;5262366;56;20120;-73
2021/07/20 19:10:47;;;;;;;8.30;6.43;;;;;;;21.26;65.23;96464.63;5271954;56;20119;-72
2021/07/20 19:15:50;;;;;;;9.52;6.45;;;;;;;20.65;66.37;96467.34;5255228;56;20116;-73
2021/07/20 19:20:52;;;;;;;10.18;6.57;;;;;;;20.14;68.19;96471.09;5263142;56;20120;-73
2021/07/20 19:25:55;;;;;;;10.00;7.15;;;;;;;19.76;68.78;96476.50;5257568;56;20120;-72
2021/07/20 19:30:58;;;;;;;11.68;7.00;;;;;;;19.48;70.72;96477.91;5248018;56;20133;-72
2021/07/20 19:36:00;;;;;;;11.85;6.43;;;;;;;19.39;71.26;96486.63;5261798;56;20606;-73
2021/07/20 19:41:03;;;;;;;8.63;6.68;;;;;;;19.50;70.08;96498.53;5280179;56;20168;-73
2021/07/20 19:46:06;;;;;;;12.55;7.13;;;;;;;19.20;72.68;96504.00;5279541;56;20117;-71
2021/07/20 19:51:10;;;;;;;13.23;7.00;;;;;;;19.01;74.73;96508.66;5276252;56;20141;-70
2021/07/20 19:56:15;;;;;;;10.77;7.10;;;;;;;18.96;74.52;96509.44;5277982;56;20696;-73
2021/07/20 20:01:18;;;;;;;10.15;6.97;;;;;;;18.83;74.70;96503.63;5266548;56;20116;-69
2021/07/20 20:06:21;;;;;;;9.55;6.63;;;;;;;18.55;75.95;96514.84;5273562;56;20139;-72
2021/07/20 20:11:23;;;;;;;13.23;7.30;;;;;;;18.53;76.75;96519.44;5275199;56;20116;-72
2021/07/20 20:16:26;;;;;;;13.55;6.90;;;;;;;18.46;77.32;96520.72;5270543;56;20119;-71
2021/07/20 20:21:28;;;;;;;9.55;6.40;;;;;;;18.30;77.56;96524.25;5242123;56;20178;-69
2021/07/20 20:26:31;;;;;;;9.48;6.70;;;;;;;18.15;78.15;96520.94;5241015;56;20126;-69
2021/07/20 20:31:34;;;;;;;13.10;6.78;;;;;;;18.05;78.69;96525.25;5261858;56;20966;-71
2021/07/20 20:36:36;;;;;;;9.63;6.75;;;;;;;17.89;79.14;96525.97;5282624;56;20120;-72
2021/07/20 20:41:39;;;;;;;14.25;7.22;;;;;;;17.95;78.47;96526.78;5270402;56;20110;-72
2021/07/20 20:46:41;;;;;;;9.20;6.53;;;;;;;18.11;78.19;96533.66;5282671;56;20115;-71
2021/07/20 20:51:44;;;;;;;11.13;6.95;;;;;;;17.93;78.97;96526.50;5269889;56;20134;-73
2021/07/20 20:56:47;;;;;;;8.63;6.40;;;;;;;17.65;80.22;96532.03;5259855;56;20117;-69
2021/07/20 21:01:49;;;;;;;8.57;6.25;;;;;;;17.75;79.62;96532.56;5262951;56;20248;-70
2021/07/20 21:06:51;;;;;;;10.98;7.07;;;;;;;17.81;78.73;96538.94;5263950;56;20134;-73
2021/07/20 21:11:54;;;;;;;8.70;6.25;;;;;;;17.41;81.16;96544.88;5262938;56;20705;-73
2021/07/20 21:16:57;;;;;;;11.93;6.75;;;;;;;17.27;81.57;96549.41;5264362;56;20588;-73
2021/07/20 21:22:00;;;;;;;10.02;7.15;;;;;;;17.22;82.37;96550.13;5264534;56;20130;-71
2021/07/20 21:27:02;;;;;;;12.20;7.75;;;;;;;17.39;81.59;96558.59;5264071;56;20121;-72
2021/07/20 21:32:05;;;;;;;9.98;7.28;;;;;;;17.25;82.32;96560.31;5264613;56;20136;-72
2021/07/20 21:37:08;;;;;;;8.02;6.63;;;;;;;17.02;82.68;96559.44;5264397;56;20125;-73
2021/07/20 21:42:11;;;;;;;9.68;6.32;;;;;;;17.20;82.06;96567.41;5264343;56;20120;-70
2021/07/20 21:47:16;;;;;;;10.15;7.22;;;;;;;16.97;83.30;96562.19;5270403;56;20112;-73
2021/07/20 21:52:19;;;;;;;10.52;7.25;;;;;;;16.82;83.76;96565.16;5280773;56;20589;-72
2021/07/20 21:57:21;;;;;;;11.57;7.20;;;;;;;17.03;82.96;96569.31;5255884;56;20112;-72
2021/07/20 22:02:24;;;;;;;10.85;7.25;;;;;;;17.14;81.41;96574.97;5269574;56;20202;-71
2021/07/20 22:07:26;;;;;;;13.30;7.13;;;;;;;16.78;82.67;96572.97;5262403;56;20237;-72
2021/07/20 22:12:28;;;;;;;9.63;6.47;;;;;;;16.64;83.16;96571.13;5238799;56;20590;-71
2021/07/20 22:17:31;;;;;;;8.63;6.57;;;;;;;16.80;82.92;96576.03;5242523;56;20580;-72
2021/07/20 22:22:34;;;;;;;8.77;6.22;;;;;;;16.82;82.91;96572.75;5242656;56;20585;-71
2021/07/20 22:27:37;;;;;;;12.60;7.18;;;;;;;16.56;83.68;96577.63;5242362;56;20691;-71
2021/07/20 22:32:41;;;;;;;13.25;7.97;;;;;;;16.41;83.96;96577.75;5243091;56;20122;-72
2021/07/20 22:37:43;;;;;;;8.65;6.38;;;;;;;16.42;83.88;96584.84;5247148;56;20125;-72
2021/07/20 22:42:46;;;;;;;7.95;6.32;;;;;;;16.31;84.53;96579.16;5262974;56;20116;-71
2021/07/20 22:47:49;;;;;;;11.27;6.55;;;;;;;16.12;84.91;96584.34;5262392;56;20107;-72
2021/07/20 22:52:53;;;;;;;9.38;7.00;;;;;;;16.09;85.13;96578.97;5271853;56;20985;-72
2021/07/20 22:57:58;;;;;;;9.45;6.35;;;;;;;16.28;84.19;96574.59;5265905;56;20124;-72
2021/07/20 23:03:00;;;;;;;10.90;6.53;;;;;;;16.29;83.86;96581.69;5263618;56;20126;-71
2021/07/20 23:08:04;;;;;;;9.90;6.60;;;;;;;16.08;84.20;96578.19;5263288;56;20125;-71
2021/07/20 23:13:06;;;;;;;9.88;6.15;;;;;;;15.83;84.89;96570.59;5260929;56;20124;-71
2021/07/20 23:18:14;;;;;;;8.57;6.25;;;;;;;15.75;84.79;96567.50;5260308;56;20121;-72
2021/07/20 23:23:21;;;;;;;11.90;7.05;;;;;;;15.77;85.05;96564.97;5260146;56;20648;-72
2021/07/20 23:28:25;;;;;;;10.50;6.88;;;;;;;15.78;84.93;96571.31;5260445;56;20143;-71
2021/07/20 23:33:27;;;;;;;11.40;6.47;;;;;;;15.76;84.56;96571.78;5271744;56;20132;-72
2021/07/20 23:38:29;;;;;;;11.38;7.10;;;;;;;15.64;85.08;96569.38;5261371;56;20590;-71
2021/07/20 23:43:32;;;;;;;10.23;6.20;;;;;;;15.58;85.67;96569.31;5262657;56;20120;-72
2021/07/20 23:48:35;;;;;;;8.88;6.20;;;;;;;15.42;85.70;96575.44;5262193;56;20125;-71
2021/07/20 23:53:37;;;;;;;9.48;6.55;;;;;;;15.41;86.31;96576.69;5262180;56;20129;-71
2021/07/20 23:58:39;;;;;;;10.98;6.05;;;;;;;15.34;86.05;96565.19;5244801;56;20143;-71
